Platzwetter / Webcam

  • Aktuelles Bild
  • Verlauf
  • Verlauf
  • Verlauf
  • Verlauf
  • Verlauf
  • Verlauf
  • Verlauf
  • Verlauf
  • Verlauf
  • Verlauf
  • Verlauf
  • Verlauf
  • Verlauf
  • Verlauf
  • Verlauf
  • Verlauf
  • Verlauf

Flugwetter Linz

[Quelle: ADDS]
METAR
LOWL 271220Z 11010KT 070V150 CAVOK 14/M10 Q1025 NOSIG =
TAF
LOWL 271115Z 2712/2812 09012KT CAVOK TX16/2812Z TN02/2805Z BECMG 2715/2717 11004KT BECMG 2806/2809 27005KT =

Flugwetter Salzburg

[Quelle: ADDS]
METAR
LOWS 271220Z 06005KT 010V120 CAVOK 17/M01 Q1022 NOSIG =
TAF
LOWS 271115Z 2712/2812 05007KT CAVOK TX16/2812Z TN03/2804Z BECMG 2718/2720 16005KT BECMG 2808/2810 33007KT =

Fliegen lernen

Die Fliegerschule der WMW...

Termine & Events

Alle Termine anzeigen...

Aktuelles & News

+++ Aktuelle Spritpreise (07.03.2017): | Jet A-1 € 1,340 | Super Plus 98 ETBE € 1,370 | Avgas 100LL € 1,992 | +++